Time;durP1;ratioP1;P1;durP2;ratioP2;P2;SDS_P1;SDS_P2;PMS_P1;PMS_P2;Temp;Humidity;BMP_temperature;BMP_pressure;BME280_temperature;BME280_humidity;BME280_pressure;Samples;Min_cycle;Max_cycle;Signal;HPM_P1;HPM_P2
2023/12/16 00:02:16;;;;;;;10.50;6.72;;;;;;;4.28;57.06;101342.91;1695435;83;21291;-84
2023/12/16 00:05:23;;;;;;;8.88;6.03;;;;;;;4.48;57.29;101345.06;1720169;83;21299;-85
2023/12/16 00:08:30;;;;;;;10.82;7.22;;;;;;;4.35;57.30;101341.50;1719545;83;21315;-84
2023/12/16 00:11:36;;;;;;;10.03;6.50;;;;;;;4.53;56.79;101350.14;1719344;83;21316;-85
2023/12/16 00:14:45;;;;;;;10.85;6.87;;;;;;;4.48;56.87;101350.48;1719268;83;21335;-85
2023/12/16 00:17:51;;;;;;;10.08;6.22;;;;;;;4.66;56.53;101356.86;1719632;83;21312;-84
2023/12/16 00:21:00;;;;;;;12.63;6.37;;;;;;;4.74;56.09;101358.03;1719803;83;21339;-86
2023/12/16 00:24:10;;;;;;;10.53;6.85;;;;;;;5.11;54.89;101355.30;1719335;83;21876;-85
2023/12/16 00:27:13;;;;;;;10.23;6.22;;;;;;;5.17;54.78;101352.11;1720389;83;21335;-85
2023/12/16 00:30:19;;;;;;;8.88;6.33;;;;;;;4.59;55.77;101353.25;1717842;83;21224;-84
2023/12/16 00:33:24;;;;;;;6.25;5.10;;;;;;;4.35;57.21;101358.63;1720012;83;21339;-85
2023/12/16 00:36:31;;;;;;;8.80;5.40;;;;;;;4.97;55.34;101356.82;1720595;83;21323;-85
2023/12/16 00:39:38;;;;;;;8.43;4.62;;;;;;;4.84;54.72;101365.86;1719086;83;21891;-85
2023/12/16 00:42:45;;;;;;;5.50;4.65;;;;;;;4.78;53.92;101366.31;1720393;83;21362;-85
2023/12/16 00:45:52;;;;;;;5.72;4.03;;;;;;;4.97;53.10;101359.03;1720636;83;21288;-85
2023/12/16 00:48:59;;;;;;;4.55;3.33;;;;;;;4.98;51.93;101368.03;1719759;83;21299;-85
2023/12/16 00:52:06;;;;;;;4.03;3.35;;;;;;;5.15;51.53;101374.42;1718999;83;21196;-85
2023/12/16 00:55:14;;;;;;;3.50;3.02;;;;;;;4.71;51.53;101381.32;1720574;83;21840;-85
2023/12/16 00:58:21;;;;;;;4.42;3.10;;;;;;;4.20;52.77;101380.04;1719923;83;21852;-86
2023/12/16 01:01:27;;;;;;;4.03;3.37;;;;;;;4.46;52.01;101376.80;1720483;83;21303;-85
2023/12/16 01:04:34;;;;;;;3.80;3.00;;;;;;;4.47;51.69;101379.91;1719276;83;21201;-85
2023/12/16 01:07:39;;;;;;;4.58;3.52;;;;;;;4.15;52.14;101375.45;1719843;83;21299;-85
2023/12/16 01:10:45;;;;;;;3.95;3.22;;;;;;;3.99;52.91;101381.55;1720656;83;21911;-86
2023/12/16 01:13:50;;;;;;;5.42;4.10;;;;;;;4.04;52.40;101365.84;1719886;83;21315;-85
2023/12/16 01:16:57;;;;;;;6.12;3.77;;;;;;;4.42;51.86;101372.58;1720618;83;21280;-86
2023/12/16 01:20:04;;;;;;;5.17;3.50;;;;;;;4.52;51.48;101379.58;1720505;83;21763;-85
2023/12/16 01:23:10;;;;;;;6.12;4.42;;;;;;;4.26;52.36;101382.30;1720183;83;21311;-85
2023/12/16 01:26:17;;;;;;;5.17;4.12;;;;;;;4.22;52.31;101390.27;1720259;83;21304;-84
2023/12/16 01:29:23;;;;;;;5.67;4.25;;;;;;;4.04;52.83;101384.80;1717955;83;21319;-85
2023/12/16 01:32:30;;;;;;;6.17;4.53;;;;;;;4.03;52.76;101397.96;1709199;84;21326;-85
2023/12/16 01:35:37;;;;;;;6.15;4.67;;;;;;;4.27;52.62;101398.92;1709266;84;21884;-84
2023/12/16 01:38:44;;;;;;;6.33;4.45;;;;;;;4.36;52.24;101396.91;1708676;84;21726;-84
2023/12/16 01:41:50;;;;;;;6.70;4.80;;;;;;;4.61;51.89;101397.39;1708020;84;21351;-83
2023/12/16 01:44:57;;;;;;;9.63;4.75;;;;;;;4.50;51.80;101414.03;1708651;84;21336;-84
2023/12/16 01:48:03;;;;;;;5.67;4.33;;;;;;;4.36;52.35;101418.59;1709029;84;21907;-85
2023/12/16 01:51:09;;;;;;;4.92;4.22;;;;;;;4.83;51.53;101408.86;1709222;84;21332;-85
2023/12/16 01:54:15;;;;;;;5.33;4.10;;;;;;;4.27;51.89;101420.59;1688464;84;21340;-85
2023/12/16 01:57:21;;;;;;;4.95;3.80;;;;;;;3.68;53.27;101430.19;1709200;84;21297;-85
2023/12/16 02:00:31;;;;;;;6.05;4.47;;;;;;;3.52;54.81;101435.27;1676206;84;21368;-85
2023/12/16 02:03:38;;;;;;;5.45;4.12;;;;;;;3.79;54.52;101439.78;1703884;84;21314;-86
2023/12/16 02:06:45;;;;;;;5.62;4.30;;;;;;;3.89;54.20;101437.31;1703798;84;21304;-86
2023/12/16 02:09:51;;;;;;;4.25;3.15;;;;;;;4.16;52.43;101431.82;1702839;84;21372;-85
2023/12/16 02:12:58;;;;;;;4.62;3.75;;;;;;;4.59;51.64;101421.49;1703276;84;21225;-85
2023/12/16 02:16:03;;;;;;;5.70;3.95;;;;;;;4.80;50.29;101430.80;1702843;84;21312;-86
2023/12/16 02:19:15;;;;;;;5.35;4.00;;;;;;;4.60;50.58;101435.41;1702862;84;21328;-85
2023/12/16 02:22:21;;;;;;;5.05;3.77;;;;;;;4.95;50.32;101437.42;1703656;84;21296;-86
2023/12/16 02:25:28;;;;;;;7.40;4.33;;;;;;;4.55;49.79;101436.23;1704045;84;21296;-85
2023/12/16 02:28:35;;;;;;;7.60;4.75;;;;;;;4.46;50.53;101434.19;1703216;84;21328;-85
2023/12/16 02:31:41;;;;;;;8.25;4.35;;;;;;;4.94;49.86;101439.27;1721512;82;21303;-85
2023/12/16 02:34:48;;;;;;;7.10;4.67;;;;;;;4.97;49.59;101456.66;1741295;82;21868;-84
2023/12/16 02:37:54;;;;;;;4.70;3.58;;;;;;;4.13;51.27;101464.03;1741122;82;21315;-85
2023/12/16 02:41:01;;;;;;;6.87;3.55;;;;;;;4.03;51.66;101461.59;1739975;82;21288;-85
2023/12/16 02:44:08;;;;;;;4.92;3.70;;;;;;;4.03;51.07;101465.16;1740298;82;21329;-84
2023/12/16 02:47:14;;;;;;;8.20;3.45;;;;;;;4.26;51.58;101460.84;1741335;82;21888;-86
2023/12/16 02:50:22;;;;;;;4.65;3.00;;;;;;;4.48;51.05;101463.41;1739861;82;21316;-85
2023/12/16 02:53:29;;;;;;;4.55;3.17;;;;;;;4.64;50.16;101460.45;1739925;82;21331;-86
2023/12/16 02:56:36;;;;;;;5.12;3.30;;;;;;;4.30;50.83;101456.95;1741315;82;21288;-86
2023/12/16 02:59:43;;;;;;;4.08;2.95;;;;;;;4.22;50.39;101455.27;1739903;82;21363;-83
2023/12/16 03:02:50;;;;;;;6.78;3.58;;;;;;;5.01;49.28;101450.52;1740931;82;21914;-85
2023/12/16 03:05:56;;;;;;;4.53;3.45;;;;;;;4.92;48.60;101451.20;1740080;82;21295;-85
2023/12/16 03:09:03;;;;;;;10.23;5.12;;;;;;;4.31;49.71;101466.80;1740207;82;21312;-85
2023/12/16 03:12:09;;;;;;;10.53;5.30;;;;;;;4.22;50.04;101466.09;1741131;82;21348;-84
2023/12/16 03:15:16;;;;;;;8.75;5.28;;;;;;;4.20;50.37;101476.19;1717120;82;21323;-84
2023/12/16 03:18:22;;;;;;;7.47;4.47;;;;;;;3.84;50.65;101481.80;1740650;82;21361;-83
2023/12/16 03:21:27;;;;;;;7.85;4.40;;;;;;;3.82;50.62;101482.89;1739750;82;21332;-85
2023/12/16 03:24:34;;;;;;;7.20;3.87;;;;;;;3.77;50.91;101476.44;1740003;82;21860;-85
2023/12/16 03:27:41;;;;;;;5.47;3.62;;;;;;;3.79;50.78;101476.32;1741142;82;22026;-85
2023/12/16 03:30:48;;;;;;;6.62;3.92;;;;;;;4.03;50.51;101472.41;1740491;82;21315;-85
2023/12/16 03:33:55;;;;;;;10.05;3.90;;;;;;;3.75;50.79;101482.42;1731240;82;21711;-85
2023/12/16 03:37:02;;;;;;;6.62;3.83;;;;;;;3.80;51.18;101480.75;1768909;81;21829;-85
2023/12/16 03:40:08;;;;;;;7.87;4.50;;;;;;;3.89;50.84;101484.68;1768462;81;22259;-84
2023/12/16 03:43:16;;;;;;;12.07;3.98;;;;;;;3.46;51.38;101498.39;1768873;81;21840;-84
2023/12/16 03:46:23;;;;;;;7.95;4.10;;;;;;;3.73;51.12;101504.67;1769799;81;21311;-84
2023/12/16 03:49:30;;;;;;;6.45;4.10;;;;;;;3.38;51.36;101510.20;1768854;81;21884;-84
2023/12/16 03:52:37;;;;;;;5.33;3.95;;;;;;;4.14;50.44;101518.59;1770101;81;21277;-84
2023/12/16 03:55:45;;;;;;;4.15;3.22;;;;;;;3.82;51.03;101518.94;1770130;81;21280;-84
2023/12/16 03:58:50;;;;;;;8.53;4.12;;;;;;;3.79;51.27;101506.09;1748794;81;21342;-85
2023/12/16 04:01:57;;;;;;;6.17;3.77;;;;;;;3.97;50.63;101512.10;1768694;81;21284;-84
2023/12/16 04:05:04;;;;;;;6.95;4.35;;;;;;;3.75;50.90;101514.89;1769974;81;21276;-85
2023/12/16 04:08:12;;;;;;;4.55;3.62;;;;;;;4.00;50.42;101522.70;1769608;81;21908;-85
2023/12/16 04:11:18;;;;;;;4.08;3.60;;;;;;;4.04;50.36;101528.30;1768953;81;21366;-85
2023/12/16 04:14:24;;;;;;;9.20;4.50;;;;;;;3.90;50.55;101523.81;1768506;81;21300;-85
2023/12/16 04:17:31;;;;;;;4.67;3.65;;;;;;;3.82;50.50;101518.08;1745238;81;21332;-85
2023/12/16 04:20:38;;;;;;;4.42;3.62;;;;;;;3.64;51.25;101522.88;1739595;82;21909;-85
2023/12/16 04:23:45;;;;;;;6.83;4.53;;;;;;;3.65;50.98;101530.02;1739249;82;21301;-85
2023/12/16 04:26:51;;;;;;;5.12;3.80;;;;;;;3.25;51.89;101529.08;1738467;81;21313;-84
2023/12/16 04:29:59;;;;;;;4.42;3.47;;;;;;;3.32;51.98;101533.97;1738325;81;21914;-85
2023/12/16 04:33:05;;;;;;;4.28;3.52;;;;;;;3.42;51.81;101531.53;1740841;81;21933;-85
2023/12/16 04:36:04;;;;;;;3.77;2.70;;;;;;;3.51;51.63;101546.30;1739748;82;21302;-85
2023/12/16 04:39:09;;;;;;;4.15;3.45;;;;;;;3.38;52.03;101550.77;1740182;82;21925;-84
2023/12/16 04:42:15;;;;;;;5.95;3.83;;;;;;;3.36;52.13;101552.72;1732098;82;21873;-84
2023/12/16 04:45:21;;;;;;;7.50;3.60;;;;;;;3.43;51.97;101548.14;1741079;82;21290;-85
2023/12/16 04:48:28;;;;;;;5.00;3.80;;;;;;;3.62;51.75;101553.70;1740301;82;21310;-85
2023/12/16 04:51:34;;;;;;;7.92;4.35;;;;;;;3.63;51.32;101543.28;1740661;82;21889;-85
2023/12/16 04:54:41;;;;;;;5.85;4.30;;;;;;;3.74;51.35;101544.78;1739511;82;21883;-85
2023/12/16 04:57:48;;;;;;;6.25;4.40;;;;;;;3.85;51.09;101547.12;1740929;82;21317;-85
2023/12/16 05:00:55;;;;;;;10.55;4.30;;;;;;;3.64;51.46;101546.36;1740967;82;21281;-85
2023/12/16 05:04:01;;;;;;;4.97;4.03;;;;;;;3.58;51.85;101553.05;1740117;82;21340;-84
2023/12/16 05:07:08;;;;;;;5.20;4.12;;;;;;;3.48;51.95;101541.08;1731214;82;21278;-85
2023/12/16 05:10:16;;;;;;;6.40;4.33;;;;;;;3.34;52.13;101539.30;1741079;82;21274;-85
2023/12/16 05:13:22;;;;;;;6.60;4.67;;;;;;;3.27;52.54;101541.52;1740530;82;21938;-85
2023/12/16 05:16:31;;;;;;;8.78;5.15;;;;;;;3.04;53.35;101554.30;1741169;82;21278;-85
2023/12/16 05:19:38;;;;;;;6.30;4.80;;;;;;;3.08;52.51;101558.55;1741307;82;21265;-85
2023/12/16 05:22:46;;;;;;;11.78;4.80;;;;;;;2.93;53.42;101556.34;1740294;82;21333;-85
2023/12/16 05:25:51;;;;;;;5.55;4.65;;;;;;;2.75;54.12;101575.91;1741269;82;21272;-85
2023/12/16 05:28:57;;;;;;;9.23;5.42;;;;;;;2.52;54.66;101579.16;1741200;82;21341;-85
2023/12/16 05:32:03;;;;;;;21.40;6.60;;;;;;;2.73;54.65;101579.21;1740703;82;21309;-84
2023/12/16 05:35:13;;;;;;;24.05;5.67;;;;;;;2.84;54.17;101586.64;1745309;81;21305;-85
2023/12/16 05:38:19;;;;;;;9.08;5.05;;;;;;;2.97;54.37;101585.40;1748639;82;21301;-85
2023/12/16 05:41:25;;;;;;;8.68;5.83;;;;;;;2.96;54.08;101592.61;1749141;82;21849;-84
2023/12/16 05:44:31;;;;;;;10.53;6.17;;;;;;;3.20;53.69;101599.69;1747805;82;21309;-84
2023/12/16 05:47:37;;;;;;;10.78;6.22;;;;;;;2.70;54.76;101607.76;1748980;82;21305;-84
2023/12/16 05:50:42;;;;;;;12.73;6.42;;;;;;;3.21;53.67;101604.12;1749086;82;21297;-84
2023/12/16 05:53:48;;;;;;;15.63;7.90;;;;;;;3.04;54.25;101613.28;1747772;82;21277;-84
2023/12/16 05:56:55;;;;;;;13.18;7.75;;;;;;;3.21;53.84;101615.42;1749038;82;21326;-84
2023/12/16 06:00:03;;;;;;;10.78;8.20;;;;;;;3.36;53.37;101617.63;1749083;82;21305;-84
2023/12/16 06:03:10;;;;;;;62.50;14.27;;;;;;;3.05;54.13;101623.13;1733030;82;21325;-84
2023/12/16 06:06:16;;;;;;;33.55;10.03;;;;;;;3.39;54.10;101625.52;1749346;82;21171;-84
2023/12/16 06:09:23;;;;;;;20.70;9.68;;;;;;;3.56;53.84;101631.59;1747958;82;21376;-84
2023/12/16 06:12:30;;;;;;;16.37;8.35;;;;;;;3.32;54.15;101627.77;1748711;82;21314;-84
2023/12/16 06:15:37;;;;;;;19.27;8.20;;;;;;;2.75;56.00;101643.47;1749030;82;21281;-84
2023/12/16 06:18:44;;;;;;;12.07;7.55;;;;;;;2.45;57.16;101635.88;1748532;82;21901;-84
2023/12/16 06:21:50;;;;;;;22.67;6.87;;;;;;;3.05;56.05;101629.02;1753315;81;21313;-84
2023/12/16 06:24:58;;;;;;;20.15;10.03;;;;;;;3.14;56.16;101627.09;1747729;82;21278;-84
2023/12/16 06:28:05;;;;;;;25.62;12.80;;;;;;;3.14;56.73;101632.49;1748875;82;21320;-84
2023/12/16 06:31:10;;;;;;;22.98;11.50;;;;;;;3.23;56.68;101636.45;1749314;82;21285;-84
2023/12/16 06:34:18;;;;;;;9.85;6.17;;;;;;;3.68;55.61;101631.79;1748244;82;21289;-84
2023/12/16 06:37:24;;;;;;;9.85;5.85;;;;;;;3.28;56.40;101635.20;1740774;81;21867;-85
2023/12/16 06:40:28;;;;;;;9.80;6.20;;;;;;;3.84;55.11;101635.21;1741311;82;21834;-84
2023/12/16 06:43:33;;;;;;;8.43;5.80;;;;;;;3.33;56.54;101635.77;1740722;82;21297;-84
2023/12/16 06:46:39;;;;;;;15.90;5.85;;;;;;;4.15;55.02;101625.94;1741355;82;21838;-84
2023/12/16 06:49:46;;;;;;;9.23;5.92;;;;;;;4.16;55.02;101632.22;1741349;82;21305;-85
2023/12/16 06:52:54;;;;;;;8.43;5.85;;;;;;;4.19;54.96;101630.18;1741207;82;21850;-85
2023/12/16 06:56:01;;;;;;;17.27;7.47;;;;;;;4.56;54.51;101639.84;1741307;82;21278;-84
2023/12/16 06:59:06;;;;;;;24.18;11.22;;;;;;;4.77;53.86;101642.93;1741125;82;21850;-84
2023/12/16 07:02:11;;;;;;;19.75;8.68;;;;;;;4.31;54.74;101633.88;1741315;82;21274;-84
2023/12/16 07:05:17;;;;;;;10.72;6.95;;;;;;;4.71;54.66;101632.53;1740777;82;21305;-84
2023/12/16 07:08:23;;;;;;;10.55;5.00;;;;;;;4.76;54.68;101635.78;1740996;82;21305;-84
2023/12/16 07:11:29;;;;;;;7.72;4.80;;;;;;;4.78;54.86;101648.23;1741414;82;21807;-84
2023/12/16 07:14:36;;;;;;;6.08;4.53;;;;;;;4.90;54.48;101639.75;1740991;82;21290;-84
2023/12/16 07:17:43;;;;;;;9.58;5.50;;;;;;;4.77;55.24;101647.86;1741663;82;21847;-84
2023/12/16 07:20:51;;;;;;;11.00;5.47;;;;;;;5.01;54.65;101647.13;1741423;82;21305;-84
2023/12/16 07:23:57;;;;;;;17.48;6.33;;;;;;;5.34;53.65;101652.86;1741246;82;21337;-84
2023/12/16 07:27:04;;;;;;;11.68;6.12;;;;;;;5.67;53.02;101656.83;1740988;82;21517;-84
2023/12/16 07:30:10;;;;;;;7.72;5.72;;;;;;;5.90;52.78;101658.72;1741254;82;21767;-85
2023/12/16 07:33:15;;;;;;;8.08;6.00;;;;;;;5.48;53.60;101651.87;1739354;81;21313;-84
2023/12/16 07:36:21;;;;;;;8.40;6.33;;;;;;;6.14;52.22;101649.27;1756682;80;21264;-85
2023/12/16 07:39:28;;;;;;;8.40;5.95;;;;;;;5.76;53.07;101653.44;1767567;81;21307;-84
2023/12/16 07:42:35;;;;;;;10.70;7.55;;;;;;;5.82;53.01;101657.05;1752517;81;21319;-84
2023/12/16 07:45:41;;;;;;;10.70;6.60;;;;;;;5.31;53.48;101661.21;1768903;81;21923;-85
2023/12/16 07:48:48;;;;;;;9.08;6.40;;;;;;;5.79;52.59;101658.66;1747819;81;21263;-84
2023/12/16 07:51:48;;;;;;;8.63;6.90;;;;;;;6.19;51.74;101659.79;1770811;81;21344;-84
2023/12/16 07:54:42;;;;;;;10.70;6.90;;;;;;;6.08;51.39;101656.53;1770524;81;21324;-84
2023/12/16 07:57:48;;;;;;;11.50;7.37;;;;;;;5.97;51.50;101656.44;1771584;81;21291;-84
2023/12/16 08:00:55;;;;;;;10.13;7.03;;;;;;;6.04;51.43;101655.52;1770375;81;21291;-85
2023/12/16 08:04:01;;;;;;;10.58;7.42;;;;;;;6.68;49.91;101649.27;1770090;81;21351;-84
2023/12/16 08:07:10;;;;;;;11.88;8.23;;;;;;;6.40;50.29;101651.88;1770572;81;21848;-85
2023/12/16 08:10:17;;;;;;;11.53;7.87;;;;;;;6.51;49.81;101655.13;1771567;81;21817;-85
2023/12/16 08:13:24;;;;;;;11.50;8.23;;;;;;;6.61;49.76;101650.22;1744596;81;21313;-85
2023/12/16 08:16:30;;;;;;;11.50;8.10;;;;;;;6.87;49.30;101650.94;1739971;82;21285;-84
2023/12/16 08:19:36;;;;;;;12.80;9.00;;;;;;;5.98;50.22;101654.63;1737987;82;21305;-84
2023/12/16 08:22:43;;;;;;;14.80;8.95;;;;;;;5.74;51.44;101657.23;1738661;82;21274;-84
2023/12/16 08:25:49;;;;;;;19.42;9.45;;;;;;;5.61;51.46;101658.64;1739687;82;21854;-85
2023/12/16 08:28:56;;;;;;;13.08;8.93;;;;;;;5.69;51.23;101661.64;1739338;82;21337;-84
2023/12/16 08:32:01;;;;;;;13.08;8.93;;;;;;;5.33;51.89;101657.05;1741006;82;21818;-84
2023/12/16 08:35:10;;;;;;;15.05;8.63;;;;;;;5.31;51.90;101644.93;1740073;82;21313;-85
2023/12/16 08:38:17;;;;;;;15.30;10.05;;;;;;;5.37;52.18;101645.88;1744261;81;21300;-85
2023/12/16 08:41:25;;;;;;;17.00;9.65;;;;;;;5.56;51.72;101641.83;1748622;82;21289;-84
2023/12/16 08:44:25;;;;;;;14.20;9.10;;;;;;;5.63;51.66;101628.17;1748607;82;21858;-84
2023/12/16 08:47:31;;;;;;;14.95;10.35;;;;;;;5.75;50.74;101625.06;1749386;82;21286;-84
2023/12/16 08:50:38;;;;;;;15.05;9.78;;;;;;;5.99;49.73;101611.53;1749235;82;21806;-85
2023/12/16 08:53:44;;;;;;;16.97;10.20;;;;;;;6.13;49.36;101610.00;1749201;82;21348;-85
2023/12/16 08:56:50;;;;;;;17.55;9.15;;;;;;;5.89;49.89;101609.47;1749255;82;21278;-85
2023/12/16 08:59:57;;;;;;;16.37;10.28;;;;;;;6.18;49.84;101608.30;1748758;82;21831;-86
2023/12/16 09:03:06;;;;;;;17.25;9.70;;;;;;;6.20;49.08;101601.75;1747768;81;21336;-86
2023/12/16 09:06:14;;;;;;;15.68;10.15;;;;;;;6.47;48.29;101603.34;1749204;82;21301;-85
2023/12/16 09:09:21;;;;;;;15.28;9.95;;;;;;;6.23;48.97;101593.87;1749178;82;21316;-86
2023/12/16 09:12:28;;;;;;;14.80;9.30;;;;;;;6.04;49.09;101593.90;1748623;82;21274;-85
2023/12/16 09:15:37;;;;;;;14.38;9.60;;;;;;;5.84;49.37;101604.88;1748337;82;21345;-86
2023/12/16 09:18:47;;;;;;;15.00;9.18;;;;;;;6.13;48.93;101604.56;1747774;82;21309;-85
2023/12/16 09:21:55;;;;;;;16.82;9.95;;;;;;;6.05;49.39;101595.63;1748670;82;21282;-86
2023/12/16 09:25:04;;;;;;;16.75;9.48;;;;;;;6.17;49.49;101597.92;1752933;81;21298;-87
2023/12/16 09:28:11;;;;;;;13.75;9.10;;;;;;;5.85;49.43;101596.23;1748734;82;21297;-87
2023/12/16 09:31:16;;;;;;;13.55;9.20;;;;;;;6.17;48.67;101587.05;1748900;82;21285;-86
2023/12/16 09:34:22;;;;;;;14.03;9.38;;;;;;;5.76;49.34;101588.28;1748670;82;21311;-87
2023/12/16 09:37:29;;;;;;;15.72;9.68;;;;;;;5.71;49.73;101583.69;1748982;82;21297;-87
2023/12/16 09:40:35;;;;;;;15.58;9.18;;;;;;;5.77;49.91;101577.79;1742686;81;21297;-87
2023/12/16 09:43:42;;;;;;;16.05;9.93;;;;;;;6.03;49.25;101565.51;1740997;81;21314;-87
2023/12/16 09:46:48;;;;;;;15.18;10.18;;;;;;;5.87;49.32;101582.91;1741005;81;21290;-87
2023/12/16 09:49:54;;;;;;;16.67;9.98;;;;;;;6.12;49.06;101578.39;1751957;81;21310;-87
2023/12/16 09:53:02;;;;;;;15.72;9.33;;;;;;;6.17;49.41;101576.19;1741040;82;21270;-87
2023/12/16 09:56:09;;;;;;;15.13;10.00;;;;;;;6.73;48.46;101574.11;1741155;82;21333;-87
2023/12/16 09:59:14;;;;;;;14.03;8.83;;;;;;;6.99;47.95;101577.00;1740905;82;21318;-87
2023/12/16 10:02:35;;;;;;;15.15;9.30;;;;;;;7.18;47.71;101588.14;1740945;82;21836;-87
2023/12/16 10:05:42;;;;;;;12.75;8.35;;;;;;;6.97;46.99;101580.35;1740716;82;21309;-87
2023/12/16 10:08:50;;;;;;;15.10;9.00;;;;;;;6.25;48.38;101576.45;1741078;82;21275;-88
2023/12/16 10:11:59;;;;;;;12.50;8.20;;;;;;;6.64;48.22;101587.95;1740873;82;21258;-88
2023/12/16 10:15:06;;;;;;;16.37;8.43;;;;;;;6.35;48.14;101580.67;1741039;82;21287;-87
2023/12/16 10:18:12;;;;;;;16.07;8.38;;;;;;;6.61;48.03;101576.81;1741031;82;21847;-87
2023/12/16 10:21:12;;;;;;;11.75;8.40;;;;;;;6.47;48.17;101577.52;1741107;82;21278;-87
2023/12/16 10:24:07;;;;;;;12.63;8.38;;;;;;;6.81;47.28;101581.17;1732267;82;21283;-87
2023/12/16 10:26:54;;;;;;;14.13;9.48;;;;;;;6.52;47.80;101583.46;1730724;82;21167;-88
2023/12/16 10:29:50;;;;;;;17.12;8.05;;;;;;;6.73;47.75;101594.03;1741187;82;21815;-89
2023/12/16 10:32:40;;;;;;;;;;;;;;;6.56;47.56;101595.34;1732662;82;21337;-88
2023/12/16 10:35:34;;;;;;;12.50;8.55;;;;;;;6.81;47.52;101586.61;1741186;81;20270;-88
2023/12/16 10:38:40;;;;;;;15.32;7.65;;;;;;;6.97;47.28;101589.87;1740516;82;21317;-88
2023/12/16 10:41:47;;;;;;;14.68;8.48;;;;;;;7.07;45.97;101590.86;1740393;81;21310;-88
2023/12/16 10:44:53;;;;;;;14.25;8.78;;;;;;;6.97;46.28;101589.01;1741043;82;21285;-88
2023/12/16 10:48:02;;;;;;;17.55;8.15;;;;;;;7.16;46.14;101590.13;1739774;82;21914;-88
2023/12/16 10:51:12;;;;;;;15.88;8.35;;;;;;;7.74;44.80;101587.72;1741410;82;21821;-88
2023/12/16 10:54:35;;;;;;;15.32;8.25;;;;;;;7.73;44.49;101576.47;1741316;82;22257;-88
2023/12/16 10:57:53;;;;;;;15.53;7.62;;;;;;;7.32;44.87;101580.22;1741123;82;21309;-88
2023/12/16 11:01:02;;;;;;;14.93;8.93;;;;;;;6.91;45.94;101581.67;1741326;82;21282;-89
2023/12/16 11:04:21;;;;;;;12.50;7.33;;;;;;;7.11;46.06;101586.05;1741282;82;21297;-88
2023/12/16 11:07:27;;;;;;;13.95;8.50;;;;;;;7.05;46.31;101582.44;1714578;82;21830;-89
2023/12/16 11:10:33;;;;;;;13.03;8.85;;;;;;;7.83;44.74;101579.66;1741160;82;21314;-87
2023/12/16 11:13:39;;;;;;;17.87;9.45;;;;;;;7.59;45.38;101573.52;1741256;82;21297;-88
2023/12/16 11:17:08;;;;;;;15.93;9.18;;;;;;;7.41;45.50;101578.61;1741225;82;21354;-89
2023/12/16 11:20:15;;;;;;;11.65;7.92;;;;;;;7.91;44.63;101568.98;1735042;82;21290;-88
2023/12/16 11:23:22;;;;;;;13.80;8.83;;;;;;;7.64;45.04;101568.56;1741398;82;21384;-89
2023/12/16 11:26:27;;;;;;;13.45;8.00;;;;;;;7.97;44.33;101568.97;1741081;82;21854;-88
2023/12/16 11:29:34;;;;;;;13.43;8.00;;;;;;;8.18;44.25;101567.63;1750343;81;21886;-88
2023/12/16 11:32:39;;;;;;;11.73;7.47;;;;;;;7.94;44.38;101575.52;1732963;82;21270;-89
2023/12/16 11:35:54;;;;;;;13.72;7.97;;;;;;;7.56;45.03;101580.56;1741033;82;21773;-89
2023/12/16 11:38:58;;;;;;;13.18;8.35;;;;;;;6.99;46.11;101581.08;1741243;82;21805;-89
2023/12/16 11:42:06;;;;;;;9.65;6.70;;;;;;;7.09;45.92;101574.41;1741854;81;21815;-88
2023/12/16 11:45:12;;;;;;;14.45;7.42;;;;;;;6.95;46.34;101574.14;1746052;81;21267;-89
2023/12/16 11:48:46;;;;;;;10.72;7.10;;;;;;;6.53;47.80;101565.66;1725067;82;21191;-89
2023/12/16 11:51:51;;;;;;;9.40;6.33;;;;;;;6.67;47.49;101567.30;1744978;82;21271;-89
2023/12/16 11:55:03;;;;;;;10.70;7.22;;;;;;;6.35;47.57;101574.78;1722840;82;22020;-88
2023/12/16 11:58:09;;;;;;;10.10;6.62;;;;;;;6.82;46.99;101577.00;1743992;82;21291;-88
2023/12/16 12:01:17;;;;;;;12.75;7.28;;;;;;;6.20;48.23;101570.50;1745021;82;21307;-88
2023/12/16 12:04:23;;;;;;;14.60;7.72;;;;;;;5.90;49.31;101570.47;1744391;82;21883;-88
2023/12/16 12:07:30;;;;;;;9.15;6.28;;;;;;;6.64;48.31;101560.27;1744564;82;21271;-89
2023/12/16 12:10:41;;;;;;;11.43;6.85;;;;;;;6.09;49.08;101555.52;1741457;82;22144;-88
2023/12/16 12:13:46;;;;;;;12.60;6.95;;;;;;;6.09;49.15;101564.53;1744930;82;21291;-89
2023/12/16 12:16:54;;;;;;;9.53;6.50;;;;;;;6.67;48.17;101568.66;1744635;82;21169;-89
2023/12/16 12:20:07;;;;;;;10.20;6.87;;;;;;;6.64;47.97;101562.99;1730481;82;21315;-89
2023/12/16 12:23:13;;;;;;;8.73;6.10;;;;;;;6.55;48.42;101557.41;1753895;81;21354;-89
2023/12/16 12:26:21;;;;;;;9.00;5.95;;;;;;;6.53;48.19;101553.92;1763784;81;21183;-88
2023/12/16 12:29:27;;;;;;;8.80;5.85;;;;;;;6.88;47.21;101557.47;1780363;80;21362;-89
2023/12/16 12:32:39;;;;;;;11.25;6.53;;;;;;;6.82;47.31;101561.14;1763145;81;21836;-89
2023/12/16 12:35:46;;;;;;;7.92;5.15;;;;;;;6.75;47.25;101560.78;1782335;80;21283;-89
2023/12/16 12:38:55;;;;;;;13.38;6.25;;;;;;;7.16;46.93;101567.50;1756589;81;21321;-89
2023/12/16 12:42:10;;;;;;;8.40;4.85;;;;;;;6.57;47.77;101570.38;1756952;81;21807;-89
2023/12/16 12:45:16;;;;;;;10.82;6.55;;;;;;;6.89;47.82;101576.00;1756580;81;21274;-89
2023/12/16 12:48:23;;;;;;;9.43;6.10;;;;;;;6.36;48.36;101566.99;1755904;81;21286;-89
2023/12/16 12:51:32;;;;;;;9.90;6.15;;;;;;;6.56;48.54;101564.58;1757036;81;21279;-89
2023/12/16 12:54:51;;;;;;;9.18;5.70;;;;;;;7.06;47.58;101567.88;1784567;80;21825;-89
2023/12/16 12:58:00;;;;;;;6.40;4.67;;;;;;;7.17;47.04;101563.78;1784415;80;21321;-88
2023/12/16 13:01:12;;;;;;;5.78;4.28;;;;;;;6.63;47.72;101564.45;1784725;80;21850;-88
2023/12/16 13:04:22;;;;;;;9.20;5.62;;;;;;;6.22;48.47;101572.63;1784234;80;21263;-89
2023/12/16 13:07:27;;;;;;;6.80;4.67;;;;;;;6.44;48.17;101577.25;1784482;80;21291;-89
2023/12/16 13:10:26;;;;;;;8.10;4.72;;;;;;;6.60;47.56;101576.95;1784790;80;21267;-89
2023/12/16 13:13:34;;;;;;;6.50;4.42;;;;;;;6.40;47.84;101574.42;1784560;80;21294;-88
2023/12/16 13:16:40;;;;;;;9.98;5.50;;;;;;;6.46;47.76;101567.14;1784479;80;21282;-89
2023/12/16 13:19:49;;;;;;;11.00;5.37;;;;;;;6.22;48.51;101571.27;1782630;80;21176;-89
2023/12/16 13:22:56;;;;;;;9.43;5.35;;;;;;;6.87;47.70;101567.11;1784326;80;21298;-89
2023/12/16 13:26:05;;;;;;;8.80;5.30;;;;;;;6.35;48.46;101563.02;1784938;80;21275;-89
2023/12/16 13:29:12;;;;;;;7.53;5.42;;;;;;;7.32;46.77;101570.70;1784726;80;21287;-89
2023/12/16 13:32:19;;;;;;;8.28;5.58;;;;;;;6.68;47.41;101564.09;1784227;80;21278;-88
2023/12/16 13:35:24;;;;;;;11.70;5.83;;;;;;;6.99;47.63;101558.45;1784349;80;21333;-89
2023/12/16 13:38:31;;;;;;;9.33;5.42;;;;;;;5.90;49.39;101565.03;1784561;80;21399;-89
2023/12/16 13:41:43;;;;;;;7.87;5.40;;;;;;;6.34;49.08;101565.36;1784660;80;21302;-89
2023/12/16 13:44:50;;;;;;;8.15;5.55;;;;;;;6.08;49.68;101568.73;1783040;80;21296;-88
2023/12/16 13:47:56;;;;;;;13.75;7.10;;;;;;;5.96;50.02;101571.02;1783802;80;21899;-88
2023/12/16 13:51:03;;;;;;;10.28;5.97;;;;;;;5.88;50.39;101576.52;1783714;80;21342;-88
2023/12/16 13:54:09;;;;;;;12.03;6.30;;;;;;;5.30;51.63;101573.16;1783348;80;21351;-89
2023/12/16 13:57:16;;;;;;;8.65;5.72;;;;;;;5.56;51.40;101568.55;1784397;80;21310;-88
2023/12/16 14:00:23;;;;;;;10.18;6.00;;;;;;;5.45;51.76;101559.81;1783186;80;21321;-90
2023/12/16 14:03:31;;;;;;;13.10;5.87;;;;;;;5.24;52.41;101556.84;1782892;80;21879;-90
2023/12/16 14:06:39;;;;;;;8.78;5.30;;;;;;;5.66;51.85;101549.23;1784320;80;21278;-90
2023/12/16 14:09:46;;;;;;;9.55;5.62;;;;;;;5.75;52.03;101555.83;1782656;80;21330;-89
2023/12/16 14:12:52;;;;;;;8.58;5.28;;;;;;;5.82;51.87;101560.66;1783089;80;21303;-88
2023/12/16 14:15:58;;;;;;;7.92;5.42;;;;;;;6.09;51.10;101548.73;1782963;80;21287;-89
2023/12/16 14:19:00;;;;;;;7.60;5.17;;;;;;;6.04;51.44;101557.73;1783403;80;21911;-89
2023/12/16 14:22:08;;;;;;;8.25;4.67;;;;;;;5.96;51.73;101561.51;1782026;80;21854;-89
2023/12/16 14:25:16;;;;;;;7.22;4.95;;;;;;;6.23;51.34;101549.89;1784363;80;21274;-89
2023/12/16 14:28:22;;;;;;;15.88;7.92;;;;;;;6.30;51.05;101556.58;1784025;80;21386;-89
2023/12/16 14:31:30;;;;;;;11.68;7.00;;;;;;;6.39;51.18;101555.00;1783040;80;21283;-89
2023/12/16 14:34:37;;;;;;;9.95;5.90;;;;;;;6.29;51.33;101558.92;1764694;80;21357;-89